sensor_id;sensor_type;location;lat;lon;timestamp;temperature;humidity
69546;SHT31;56766;52.260;20.746;2023-04-24T00:01:01;9.65;67.97
69546;SHT31;56766;52.260;20.746;2023-04-24T00:03:27;9.58;68.30
69546;SHT31;56766;52.260;20.746;2023-04-24T00:05:54;9.51;68.05
69546;SHT31;56766;52.260;20.746;2023-04-24T00:08:21;9.47;68.19
69546;SHT31;56766;52.260;20.746;2023-04-24T00:10:48;9.44;68.37
69546;SHT31;56766;52.260;20.746;2023-04-24T00:13:14;9.41;68.15
69546;SHT31;56766;52.260;20.746;2023-04-24T00:15:41;9.38;67.96
69546;SHT31;56766;52.260;20.746;2023-04-24T00:18:07;9.36;68.12
69546;SHT31;56766;52.260;20.746;2023-04-24T00:20:34;9.33;68.13
69546;SHT31;56766;52.260;20.746;2023-04-24T00:23:01;9.31;68.40
69546;SHT31;56766;52.260;20.746;2023-04-24T00:25:27;9.29;68.81
69546;SHT31;56766;52.260;20.746;2023-04-24T00:27:54;9.25;69.22
69546;SHT31;56766;52.260;20.746;2023-04-24T00:30:20;9.21;69.28
69546;SHT31;56766;52.260;20.746;2023-04-24T00:32:46;9.17;69.54
69546;SHT31;56766;52.260;20.746;2023-04-24T00:35:12;9.12;69.73
69546;SHT31;56766;52.260;20.746;2023-04-24T00:37:38;9.07;69.91
69546;SHT31;56766;52.260;20.746;2023-04-24T00:40:07;9.01;70.04
69546;SHT31;56766;52.260;20.746;2023-04-24T00:42:37;8.98;70.20
69546;SHT31;56766;52.260;20.746;2023-04-24T00:45:04;8.92;70.70
69546;SHT31;56766;52.260;20.746;2023-04-24T00:47:33;8.86;70.56
69546;SHT31;56766;52.260;20.746;2023-04-24T00:50:05;8.83;70.59
69546;SHT31;56766;52.260;20.746;2023-04-24T00:52:32;8.82;70.34
69546;SHT31;56766;52.260;20.746;2023-04-24T00:54:58;8.80;70.20
69546;SHT31;56766;52.260;20.746;2023-04-24T00:57:25;8.77;70.40
69546;SHT31;56766;52.260;20.746;2023-04-24T00:59:53;8.73;70.61
69546;SHT31;56766;52.260;20.746;2023-04-24T01:02:22;8.69;70.86
69546;SHT31;56766;52.260;20.746;2023-04-24T01:04:50;8.68;70.68
69546;SHT31;56766;52.260;20.746;2023-04-24T01:07:20;8.64;71.12
69546;SHT31;56766;52.260;20.746;2023-04-24T01:09:50;8.64;71.52
69546;SHT31;56766;52.260;20.746;2023-04-24T01:12:18;8.64;71.57
69546;SHT31;56766;52.260;20.746;2023-04-24T01:14:48;8.68;71.50
69546;SHT31;56766;52.260;20.746;2023-04-24T01:17:15;8.72;71.75
69546;SHT31;56766;52.260;20.746;2023-04-24T01:19:41;8.76;71.78
69546;SHT31;56766;52.260;20.746;2023-04-24T01:22:13;8.80;71.91
69546;SHT31;56766;52.260;20.746;2023-04-24T01:24:41;8.80;72.03
69546;SHT31;56766;52.260;20.746;2023-04-24T01:27:10;8.68;72.24
69546;SHT31;56766;52.260;20.746;2023-04-24T01:29:37;8.57;72.28
69546;SHT31;56766;52.260;20.746;2023-04-24T01:32:05;8.53;72.28
69546;SHT31;56766;52.260;20.746;2023-04-24T01:34:33;8.54;72.23
69546;SHT31;56766;52.260;20.746;2023-04-24T01:36:59;8.54;72.19
69546;SHT31;56766;52.260;20.746;2023-04-24T01:39:26;8.54;72.01
69546;SHT31;56766;52.260;20.746;2023-04-24T01:41:55;8.53;72.13
69546;SHT31;56766;52.260;20.746;2023-04-24T01:44:22;8.50;72.24
69546;SHT31;56766;52.260;20.746;2023-04-24T01:46:49;8.46;72.33
69546;SHT31;56766;52.260;20.746;2023-04-24T01:49:16;8.43;72.36
69546;SHT31;56766;52.260;20.746;2023-04-24T01:51:42;8.40;72.50
69546;SHT31;56766;52.260;20.746;2023-04-24T01:54:09;8.38;73.01
69546;SHT31;56766;52.260;20.746;2023-04-24T01:56:36;8.35;73.08
69546;SHT31;56766;52.260;20.746;2023-04-24T01:59:10;8.32;72.64
69546;SHT31;56766;52.260;20.746;2023-04-24T02:01:38;8.30;72.72
69546;SHT31;56766;52.260;20.746;2023-04-24T02:04:06;8.28;73.15
69546;SHT31;56766;52.260;20.746;2023-04-24T02:06:33;8.23;73.62
69546;SHT31;56766;52.260;20.746;2023-04-24T02:08:59;8.14;73.90
69546;SHT31;56766;52.260;20.746;2023-04-24T02:11:27;8.09;73.94
69546;SHT31;56766;52.260;20.746;2023-04-24T02:13:54;8.07;73.91
69546;SHT31;56766;52.260;20.746;2023-04-24T02:16:20;8.06;74.08
69546;SHT31;56766;52.260;20.746;2023-04-24T02:18:46;8.00;74.21
69546;SHT31;56766;52.260;20.746;2023-04-24T02:21:14;7.98;74.15
69546;SHT31;56766;52.260;20.746;2023-04-24T02:23:42;7.97;74.20
69546;SHT31;56766;52.260;20.746;2023-04-24T02:26:08;7.96;74.26
69546;SHT31;56766;52.260;20.746;2023-04-24T02:28:35;7.96;74.49
69546;SHT31;56766;52.260;20.746;2023-04-24T02:31:01;7.96;74.61
69546;SHT31;56766;52.260;20.746;2023-04-24T02:33:27;7.96;74.97
69546;SHT31;56766;52.260;20.746;2023-04-24T02:35:54;7.97;74.98
69546;SHT31;56766;52.260;20.746;2023-04-24T02:38:21;7.99;74.92
69546;SHT31;56766;52.260;20.746;2023-04-24T02:40:47;8.01;75.18
69546;SHT31;56766;52.260;20.746;2023-04-24T02:43:13;8.05;75.12
69546;SHT31;56766;52.260;20.746;2023-04-24T02:45:39;8.09;75.15
69546;SHT31;56766;52.260;20.746;2023-04-24T02:48:05;8.13;75.15
69546;SHT31;56766;52.260;20.746;2023-04-24T02:50:31;8.15;75.06
69546;SHT31;56766;52.260;20.746;2023-04-24T02:52:58;8.18;74.96
69546;SHT31;56766;52.260;20.746;2023-04-24T02:55:24;8.20;74.88
69546;SHT31;56766;52.260;20.746;2023-04-24T02:57:51;8.22;74.81
69546;SHT31;56766;52.260;20.746;2023-04-24T03:00:17;8.24;74.57
69546;SHT31;56766;52.260;20.746;2023-04-24T03:02:43;8.25;74.68
69546;SHT31;56766;52.260;20.746;2023-04-24T03:05:09;8.26;74.70
69546;SHT31;56766;52.260;20.746;2023-04-24T03:07:37;8.28;75.01
69546;SHT31;56766;52.260;20.746;2023-04-24T03:10:05;8.29;75.14
69546;SHT31;56766;52.260;20.746;2023-04-24T03:12:32;8.33;75.27
69546;SHT31;56766;52.260;20.746;2023-04-24T03:14:58;8.39;75.05
69546;SHT31;56766;52.260;20.746;2023-04-24T03:17:24;8.44;75.17
69546;SHT31;56766;52.260;20.746;2023-04-24T03:19:50;8.46;75.13
69546;SHT31;56766;52.260;20.746;2023-04-24T03:22:16;8.49;75.02
69546;SHT31;56766;52.260;20.746;2023-04-24T03:24:42;8.49;74.91
69546;SHT31;56766;52.260;20.746;2023-04-24T03:27:08;8.50;74.75
69546;SHT31;56766;52.260;20.746;2023-04-24T03:29:35;8.54;74.73
69546;SHT31;56766;52.260;20.746;2023-04-24T03:32:01;8.55;74.91
69546;SHT31;56766;52.260;20.746;2023-04-24T03:34:27;8.58;75.04
69546;SHT31;56766;52.260;20.746;2023-04-24T03:36:53;8.64;75.27
69546;SHT31;56766;52.260;20.746;2023-04-24T03:39:20;8.72;75.21
69546;SHT31;56766;52.260;20.746;2023-04-24T03:41:46;8.79;75.41
69546;SHT31;56766;52.260;20.746;2023-04-24T03:44:12;8.85;75.39
69546;SHT31;56766;52.260;20.746;2023-04-24T03:46:38;8.93;75.39
69546;SHT31;56766;52.260;20.746;2023-04-24T03:49:04;9.03;75.43
69546;SHT31;56766;52.260;20.746;2023-04-24T03:51:30;9.10;75.52
69546;SHT31;56766;52.260;20.746;2023-04-24T03:53:58;9.18;75.79
69546;SHT31;56766;52.260;20.746;2023-04-24T03:56:24;9.28;75.82
69546;SHT31;56766;52.260;20.746;2023-04-24T03:58:50;9.40;75.64
69546;SHT31;56766;52.260;20.746;2023-04-24T04:01:16;9.48;75.60
69546;SHT31;56766;52.260;20.746;2023-04-24T04:03:43;9.58;75.51
69546;SHT31;56766;52.260;20.746;2023-04-24T04:06:10;9.71;75.47
69546;SHT31;56766;52.260;20.746;2023-04-24T04:08:37;9.83;75.47
69546;SHT31;56766;52.260;20.746;2023-04-24T04:11:03;9.95;75.44
69546;SHT31;56766;52.260;20.746;2023-04-24T04:13:29;10.07;75.25
69546;SHT31;56766;52.260;20.746;2023-04-24T04:16:00;10.19;75.00
69546;SHT31;56766;52.260;20.746;2023-04-24T04:18:26;10.32;74.89
69546;SHT31;56766;52.260;20.746;2023-04-24T04:20:52;10.44;74.80
69546;SHT31;56766;52.260;20.746;2023-04-24T04:23:18;10.56;74.60
69546;SHT31;56766;52.260;20.746;2023-04-24T04:25:44;10.67;74.36
69546;SHT31;56766;52.260;20.746;2023-04-24T04:28:10;10.78;73.97
69546;SHT31;56766;52.260;20.746;2023-04-24T04:30:36;10.92;73.68
69546;SHT31;56766;52.260;20.746;2023-04-24T04:33:04;11.03;73.42
69546;SHT31;56766;52.260;20.746;2023-04-24T04:35:29;11.14;73.18
69546;SHT31;56766;52.260;20.746;2023-04-24T04:37:56;11.27;72.81
69546;SHT31;56766;52.260;20.746;2023-04-24T04:40:24;11.39;72.34
69546;SHT31;56766;52.260;20.746;2023-04-24T04:42:50;11.54;72.03
69546;SHT31;56766;52.260;20.746;2023-04-24T04:45:19;11.68;71.66
69546;SHT31;56766;52.260;20.746;2023-04-24T04:47:46;11.85;71.28
69546;SHT31;56766;52.260;20.746;2023-04-24T04:50:13;12.03;70.79
69546;SHT31;56766;52.260;20.746;2023-04-24T04:52:39;12.23;70.24
69546;SHT31;56766;52.260;20.746;2023-04-24T04:55:06;12.36;69.89
69546;SHT31;56766;52.260;20.746;2023-04-24T04:57:33;12.40;69.64
69546;SHT31;56766;52.260;20.746;2023-04-24T04:59:59;12.42;69.37
69546;SHT31;56766;52.260;20.746;2023-04-24T05:02:25;12.41;69.37
69546;SHT31;56766;52.260;20.746;2023-04-24T05:04:52;12.43;69.17
69546;SHT31;56766;52.260;20.746;2023-04-24T05:07:18;12.43;69.11
69546;SHT31;56766;52.260;20.746;2023-04-24T05:09:45;12.42;68.87
69546;SHT31;56766;52.260;20.746;2023-04-24T05:12:11;12.41;68.70
69546;SHT31;56766;52.260;20.746;2023-04-24T05:14:37;12.42;68.54
69546;SHT31;56766;52.260;20.746;2023-04-24T05:17:03;12.43;68.50
69546;SHT31;56766;52.260;20.746;2023-04-24T05:19:29;12.46;68.41
69546;SHT31;56766;52.260;20.746;2023-04-24T05:21:55;12.51;68.28
69546;SHT31;56766;52.260;20.746;2023-04-24T05:24:21;12.54;68.12
69546;SHT31;56766;52.260;20.746;2023-04-24T05:26:47;12.57;68.15
69546;SHT31;56766;52.260;20.746;2023-04-24T05:29:16;12.62;68.11
69546;SHT31;56766;52.260;20.746;2023-04-24T05:31:45;12.67;67.94
69546;SHT31;56766;52.260;20.746;2023-04-24T05:34:11;12.69;67.95
69546;SHT31;56766;52.260;20.746;2023-04-24T05:36:38;12.73;67.89
69546;SHT31;56766;52.260;20.746;2023-04-24T05:39:04;12.77;67.92
69546;SHT31;56766;52.260;20.746;2023-04-24T05:41:30;12.83;67.70
69546;SHT31;56766;52.260;20.746;2023-04-24T05:43:57;12.90;67.59
69546;SHT31;56766;52.260;20.746;2023-04-24T05:46:23;13.01;67.63
69546;SHT31;56766;52.260;20.746;2023-04-24T05:48:49;13.12;67.46
69546;SHT31;56766;52.260;20.746;2023-04-24T05:51:15;13.36;67.40
69546;SHT31;56766;52.260;20.746;2023-04-24T05:53:41;13.75;66.89
69546;SHT31;56766;52.260;20.746;2023-04-24T05:56:07;14.13;66.47
69546;SHT31;56766;52.260;20.746;2023-04-24T05:58:33;14.48;65.75
69546;SHT31;56766;52.260;20.746;2023-04-24T06:00:59;14.79;65.41
69546;SHT31;56766;52.260;20.746;2023-04-24T06:03:27;14.97;64.69
69546;SHT31;56766;52.260;20.746;2023-04-24T06:05:53;15.03;64.81
69546;SHT31;56766;52.260;20.746;2023-04-24T06:08:19;15.10;64.70
69546;SHT31;56766;52.260;20.746;2023-04-24T06:10:45;15.24;64.06
69546;SHT31;56766;52.260;20.746;2023-04-24T06:13:11;15.45;63.80
69546;SHT31;56766;52.260;20.746;2023-04-24T06:15:39;15.68;63.28
69546;SHT31;56766;52.260;20.746;2023-04-24T06:18:06;15.77;62.82
69546;SHT31;56766;52.260;20.746;2023-04-24T06:20:32;15.78;62.24
69546;SHT31;56766;52.260;20.746;2023-04-24T06:22:58;15.78;62.07
69546;SHT31;56766;52.260;20.746;2023-04-24T06:25:25;15.80;62.07
69546;SHT31;56766;52.260;20.746;2023-04-24T06:27:52;15.83;61.91
69546;SHT31;56766;52.260;20.746;2023-04-24T06:30:19;15.90;61.54
69546;SHT31;56766;52.260;20.746;2023-04-24T06:32:45;16.03;61.54
69546;SHT31;56766;52.260;20.746;2023-04-24T06:35:11;16.15;61.42
69546;SHT31;56766;52.260;20.746;2023-04-24T06:37:42;16.20;61.33
69546;SHT31;56766;52.260;20.746;2023-04-24T06:40:09;16.23;60.86
69546;SHT31;56766;52.260;20.746;2023-04-24T06:42:36;16.29;61.20
69546;SHT31;56766;52.260;20.746;2023-04-24T06:45:02;16.46;61.19
69546;SHT31;56766;52.260;20.746;2023-04-24T06:47:29;16.67;61.03
69546;SHT31;56766;52.260;20.746;2023-04-24T06:49:55;16.82;60.96
69546;SHT31;56766;52.260;20.746;2023-04-24T06:52:21;16.98;60.52
69546;SHT31;56766;52.260;20.746;2023-04-24T06:54:47;17.22;60.40
69546;SHT31;56766;52.260;20.746;2023-04-24T06:57:13;17.42;60.01
69546;SHT31;56766;52.260;20.746;2023-04-24T06:59:42;17.62;59.62
69546;SHT31;56766;52.260;20.746;2023-04-24T07:02:08;17.81;59.08
69546;SHT31;56766;52.260;20.746;2023-04-24T07:04:34;18.01;58.46
69546;SHT31;56766;52.260;20.746;2023-04-24T07:07:00;18.21;58.31
69546;SHT31;56766;52.260;20.746;2023-04-24T07:09:27;18.42;58.09
69546;SHT31;56766;52.260;20.746;2023-04-24T07:11:53;18.63;56.63
69546;SHT31;56766;52.260;20.746;2023-04-24T07:14:19;18.86;56.66
69546;SHT31;56766;52.260;20.746;2023-04-24T07:16:46;19.08;56.47
69546;SHT31;56766;52.260;20.746;2023-04-24T07:19:13;19.29;55.39
69546;SHT31;56766;52.260;20.746;2023-04-24T07:21:39;19.52;55.12
69546;SHT31;56766;52.260;20.746;2023-04-24T07:24:05;19.70;53.96
69546;SHT31;56766;52.260;20.746;2023-04-24T07:26:35;19.82;53.67
69546;SHT31;56766;52.260;20.746;2023-04-24T07:29:01;19.96;54.34
69546;SHT31;56766;52.260;20.746;2023-04-24T07:31:27;20.17;53.90
69546;SHT31;56766;52.260;20.746;2023-04-24T07:33:53;20.35;53.34
69546;SHT31;56766;52.260;20.746;2023-04-24T07:36:18;20.47;52.58
69546;SHT31;56766;52.260;20.746;2023-04-24T07:38:46;20.53;53.10
69546;SHT31;56766;52.260;20.746;2023-04-24T07:41:13;20.59;53.45
69546;SHT31;56766;52.260;20.746;2023-04-24T07:43:40;20.62;53.63
69546;SHT31;56766;52.260;20.746;2023-04-24T07:46:08;20.63;53.54
69546;SHT31;56766;52.260;20.746;2023-04-24T07:48:35;20.65;52.74
69546;SHT31;56766;52.260;20.746;2023-04-24T07:51:01;20.71;53.06
69546;SHT31;56766;52.260;20.746;2023-04-24T07:53:27;20.92;53.18
69546;SHT31;56766;52.260;20.746;2023-04-24T07:55:56;21.19;52.67
69546;SHT31;56766;52.260;20.746;2023-04-24T07:58:23;21.17;51.47
69546;SHT31;56766;52.260;20.746;2023-04-24T08:00:49;21.08;51.01
69546;SHT31;56766;52.260;20.746;2023-04-24T08:03:15;21.04;51.42
69546;SHT31;56766;52.260;20.746;2023-04-24T08:05:45;20.89;51.06
69546;SHT31;56766;52.260;20.746;2023-04-24T08:08:13;20.67;50.11
69546;SHT31;56766;52.260;20.746;2023-04-24T08:10:39;20.44;50.23
69546;SHT31;56766;52.260;20.746;2023-04-24T08:13:05;20.35;51.06
69546;SHT31;56766;52.260;20.746;2023-04-24T08:15:31;20.38;51.77
69546;SHT31;56766;52.260;20.746;2023-04-24T08:17:58;20.48;51.74
69546;SHT31;56766;52.260;20.746;2023-04-24T08:20:24;20.58;51.95
69546;SHT31;56766;52.260;20.746;2023-04-24T08:22:50;20.56;52.07
69546;SHT31;56766;52.260;20.746;2023-04-24T08:25:17;20.49;51.23
69546;SHT31;56766;52.260;20.746;2023-04-24T08:27:44;20.43;51.77
69546;SHT31;56766;52.260;20.746;2023-04-24T08:30:11;20.41;52.83
69546;SHT31;56766;52.260;20.746;2023-04-24T08:32:37;20.47;52.70
69546;SHT31;56766;52.260;20.746;2023-04-24T08:35:04;20.69;52.31
69546;SHT31;56766;52.260;20.746;2023-04-24T08:37:30;20.88;51.82
69546;SHT31;56766;52.260;20.746;2023-04-24T08:39:56;21.00;52.07
69546;SHT31;56766;52.260;20.746;2023-04-24T08:42:22;21.18;51.78
69546;SHT31;56766;52.260;20.746;2023-04-24T08:44:49;21.38;51.23
69546;SHT31;56766;52.260;20.746;2023-04-24T08:47:16;21.71;50.62
69546;SHT31;56766;52.260;20.746;2023-04-24T08:49:44;22.17;50.31
69546;SHT31;56766;52.260;20.746;2023-04-24T08:52:12;22.45;50.37
69546;SHT31;56766;52.260;20.746;2023-04-24T08:54:39;22.71;49.20
69546;SHT31;56766;52.260;20.746;2023-04-24T08:57:10;23.08;48.98
69546;SHT31;56766;52.260;20.746;2023-04-24T08:59:40;23.48;48.44
69546;SHT31;56766;52.260;20.746;2023-04-24T09:02:10;23.78;47.50
69546;SHT31;56766;52.260;20.746;2023-04-24T09:04:37;24.06;47.15
69546;SHT31;56766;52.260;20.746;2023-04-24T09:07:06;24.29;45.80
69546;SHT31;56766;52.260;20.746;2023-04-24T09:09:35;24.27;41.63
69546;SHT31;56766;52.260;20.746;2023-04-24T09:12:05;24.10;41.74
69546;SHT31;56766;52.260;20.746;2023-04-24T09:14:32;24.02;43.14
69546;SHT31;56766;52.260;20.746;2023-04-24T09:16:58;24.05;41.55
69546;SHT31;56766;52.260;20.746;2023-04-24T09:19:24;24.07;42.22
69546;SHT31;56766;52.260;20.746;2023-04-24T09:21:52;24.24;41.81
69546;SHT31;56766;52.260;20.746;2023-04-24T09:24:21;24.37;42.16
69546;SHT31;56766;52.260;20.746;2023-04-24T09:26:57;24.35;42.60
69546;SHT31;56766;52.260;20.746;2023-04-24T09:29:24;24.33;42.33
69546;SHT31;56766;52.260;20.746;2023-04-24T09:31:51;24.16;42.06
69546;SHT31;56766;52.260;20.746;2023-04-24T09:34:22;24.08;42.85
69546;SHT31;56766;52.260;20.746;2023-04-24T09:36:50;24.22;43.93
69546;SHT31;56766;52.260;20.746;2023-04-24T09:39:17;24.41;43.58
69546;SHT31;56766;52.260;20.746;2023-04-24T09:41:53;24.50;41.77
69546;SHT31;56766;52.260;20.746;2023-04-24T09:44:27;24.60;41.06
69546;SHT31;56766;52.260;20.746;2023-04-24T09:46:58;25.01;42.27
69546;SHT31;56766;52.260;20.746;2023-04-24T09:49:27;25.40;42.16
69546;SHT31;56766;52.260;20.746;2023-04-24T09:52:05;25.33;40.98
69546;SHT31;56766;52.260;20.746;2023-04-24T09:54:32;25.14;39.67
69546;SHT31;56766;52.260;20.746;2023-04-24T09:56:59;24.92;39.25
69546;SHT31;56766;52.260;20.746;2023-04-24T09:59:29;24.76;41.07
69546;SHT31;56766;52.260;20.746;2023-04-24T10:01:56;24.94;42.10
69546;SHT31;56766;52.260;20.746;2023-04-24T10:04:26;25.40;42.05
69546;SHT31;56766;52.260;20.746;2023-04-24T10:06:56;25.85;41.33
69546;SHT31;56766;52.260;20.746;2023-04-24T10:09:25;26.18;40.50
69546;SHT31;56766;52.260;20.746;2023-04-24T10:11:54;26.39;39.39
69546;SHT31;56766;52.260;20.746;2023-04-24T10:14:22;26.57;39.02
69546;SHT31;56766;52.260;20.746;2023-04-24T10:16:54;26.66;39.75
69546;SHT31;56766;52.260;20.746;2023-04-24T10:19:25;26.80;40.19
69546;SHT31;56766;52.260;20.746;2023-04-24T10:21:52;26.90;39.22
69546;SHT31;56766;52.260;20.746;2023-04-24T10:24:21;26.89;38.55
69546;SHT31;56766;52.260;20.746;2023-04-24T10:26:48;26.83;38.34
69546;SHT31;56766;52.260;20.746;2023-04-24T10:29:18;26.83;37.96
69546;SHT31;56766;52.260;20.746;2023-04-24T10:31:44;26.77;36.56
69546;SHT31;56766;52.260;20.746;2023-04-24T10:34:15;26.62;35.69
69546;SHT31;56766;52.260;20.746;2023-04-24T10:36:50;26.48;36.63
69546;SHT31;56766;52.260;20.746;2023-04-24T10:39:20;26.52;38.10
69546;SHT31;56766;52.260;20.746;2023-04-24T10:41:48;26.69;38.68
69546;SHT31;56766;52.260;20.746;2023-04-24T10:44:15;26.82;38.47
69546;SHT31;56766;52.260;20.746;2023-04-24T10:46:45;26.79;37.84
69546;SHT31;56766;52.260;20.746;2023-04-24T10:49:13;26.68;36.12
69546;SHT31;56766;52.260;20.746;2023-04-24T10:59:49;26.16;38.15
69546;SHT31;56766;52.260;20.746;2023-04-24T11:02:18;25.97;37.97
69546;SHT31;56766;52.260;20.746;2023-04-24T11:05:05;25.70;38.83
69546;SHT31;56766;52.260;20.746;2023-04-24T11:10:47;25.68;39.74
69546;SHT31;56766;52.260;20.746;2023-04-24T11:13:22;25.58;38.96
69546;SHT31;56766;52.260;20.746;2023-04-24T11:16:21;25.29;37.33
69546;SHT31;56766;52.260;20.746;2023-04-24T11:21:46;25.22;37.31
69546;SHT31;56766;52.260;20.746;2023-04-24T11:24:25;25.13;36.03
69546;SHT31;56766;52.260;20.746;2023-04-24T11:27:21;25.02;34.93
69546;SHT31;56766;52.260;20.746;2023-04-24T11:29:51;24.92;35.26
69546;SHT31;56766;52.260;20.746;2023-04-24T11:35:04;25.52;37.01
69546;SHT31;56766;52.260;20.746;2023-04-24T11:37:49;25.93;36.48
69546;SHT31;56766;52.260;20.746;2023-04-24T11:40:19;26.07;33.52
69546;SHT31;56766;52.260;20.746;2023-04-24T11:42:53;26.10;33.83
69546;SHT31;56766;52.260;20.746;2023-04-24T11:45:29;26.33;35.80
69546;SHT31;56766;52.260;20.746;2023-04-24T11:47:57;26.50;34.84
69546;SHT31;56766;52.260;20.746;2023-04-24T11:50:26;26.58;33.44
69546;SHT31;56766;52.260;20.746;2023-04-24T11:52:54;26.47;31.97
69546;SHT31;56766;52.260;20.746;2023-04-24T11:57:50;26.27;32.82
69546;SHT31;56766;52.260;20.746;2023-04-24T12:00:20;26.33;32.35
69546;SHT31;56766;52.260;20.746;2023-04-24T12:02:49;26.41;32.88
69546;SHT31;56766;52.260;20.746;2023-04-24T12:05:35;26.53;33.57
69546;SHT31;56766;52.260;20.746;2023-04-24T12:08:02;26.66;34.51
69546;SHT31;56766;52.260;20.746;2023-04-24T12:10:30;27.00;35.07
69546;SHT31;56766;52.260;20.746;2023-04-24T12:12:58;27.24;33.58
69546;SHT31;56766;52.260;20.746;2023-04-24T12:15:26;27.35;32.67
69546;SHT31;56766;52.260;20.746;2023-04-24T12:17:54;27.34;32.50
69546;SHT31;56766;52.260;20.746;2023-04-24T12:20:28;27.26;32.45
69546;SHT31;56766;52.260;20.746;2023-04-24T12:22:57;27.00;33.19
69546;SHT31;56766;52.260;20.746;2023-04-24T12:25:28;26.59;33.08
69546;SHT31;56766;52.260;20.746;2023-04-24T12:30:56;25.75;34.37
69546;SHT31;56766;52.260;20.746;2023-04-24T12:33:22;25.29;34.22
69546;SHT31;56766;52.260;20.746;2023-04-24T12:35:51;24.97;34.17
69546;SHT31;56766;52.260;20.746;2023-04-24T12:38:23;24.63;34.99
69546;SHT31;56766;52.260;20.746;2023-04-24T12:41:08;24.21;38.52
69546;SHT31;56766;52.260;20.746;2023-04-24T12:43:36;23.71;43.05
69546;SHT31;56766;52.260;20.746;2023-04-24T12:46:04;23.32;44.87
69546;SHT31;56766;52.260;20.746;2023-04-24T12:48:31;23.04;46.87
69546;SHT31;56766;52.260;20.746;2023-04-24T12:50:59;22.83;49.51
69546;SHT31;56766;52.260;20.746;2023-04-24T12:53:28;22.47;49.02
69546;SHT31;56766;52.260;20.746;2023-04-24T12:55:57;21.87;47.60
69546;SHT31;56766;52.260;20.746;2023-04-24T12:58:24;21.45;48.89
69546;SHT31;56766;52.260;20.746;2023-04-24T13:00:50;21.10;48.64
69546;SHT31;56766;52.260;20.746;2023-04-24T13:03:16;20.67;50.55
69546;SHT31;56766;52.260;20.746;2023-04-24T13:05:44;20.24;52.36
69546;SHT31;56766;52.260;20.746;2023-04-24T13:08:11;19.76;52.79
69546;SHT31;56766;52.260;20.746;2023-04-24T13:10:38;19.44;52.28
69546;SHT31;56766;52.260;20.746;2023-04-24T13:13:06;19.45;52.93
69546;SHT31;56766;52.260;20.746;2023-04-24T13:15:32;19.78;53.31
69546;SHT31;56766;52.260;20.746;2023-04-24T13:17:58;20.23;53.38
69546;SHT31;56766;52.260;20.746;2023-04-24T13:20:24;20.52;51.44
69546;SHT31;56766;52.260;20.746;2023-04-24T13:22:51;20.74;50.69
69546;SHT31;56766;52.260;20.746;2023-04-24T13:25:17;20.94;50.07
69546;SHT31;56766;52.260;20.746;2023-04-24T13:27:43;21.17;49.91
69546;SHT31;56766;52.260;20.746;2023-04-24T13:30:10;21.52;50.66
69546;SHT31;56766;52.260;20.746;2023-04-24T13:32:37;21.90;49.44
69546;SHT31;56766;52.260;20.746;2023-04-24T13:35:04;22.21;47.22
69546;SHT31;56766;52.260;20.746;2023-04-24T13:37:30;22.27;45.66
69546;SHT31;56766;52.260;20.746;2023-04-24T13:39:56;22.31;44.81
69546;SHT31;56766;52.260;20.746;2023-04-24T13:42:22;22.48;45.20
69546;SHT31;56766;52.260;20.746;2023-04-24T13:44:48;22.69;44.52
69546;SHT31;56766;52.260;20.746;2023-04-24T13:47:14;22.76;43.93
69546;SHT31;56766;52.260;20.746;2023-04-24T13:49:40;22.64;44.09
69546;SHT31;56766;52.260;20.746;2023-04-24T13:52:07;22.59;43.95
69546;SHT31;56766;52.260;20.746;2023-04-24T13:54:33;22.47;43.15
69546;SHT31;56766;52.260;20.746;2023-04-24T13:56:59;22.43;42.84
69546;SHT31;56766;52.260;20.746;2023-04-24T13:59:27;22.49;42.62
69546;SHT31;56766;52.260;20.746;2023-04-24T14:01:53;22.58;42.68
69546;SHT31;56766;52.260;20.746;2023-04-24T14:04:19;22.63;42.18
69546;SHT31;56766;52.260;20.746;2023-04-24T14:06:45;22.51;41.90
69546;SHT31;56766;52.260;20.746;2023-04-24T14:09:11;22.37;41.70
69546;SHT31;56766;52.260;20.746;2023-04-24T14:11:40;22.18;41.52
69546;SHT31;56766;52.260;20.746;2023-04-24T14:14:06;22.03;41.98
69546;SHT31;56766;52.260;20.746;2023-04-24T14:16:34;21.87;42.41
69546;SHT31;56766;52.260;20.746;2023-04-24T14:19:00;21.72;42.36
69546;SHT31;56766;52.260;20.746;2023-04-24T14:21:26;21.59;42.27
69546;SHT31;56766;52.260;20.746;2023-04-24T14:23:52;21.51;42.98
69546;SHT31;56766;52.260;20.746;2023-04-24T14:26:19;21.36;42.92
69546;SHT31;56766;52.260;20.746;2023-04-24T14:28:45;21.24;43.19
69546;SHT31;56766;52.260;20.746;2023-04-24T14:31:11;21.22;43.27
69546;SHT31;56766;52.260;20.746;2023-04-24T14:33:38;21.21;43.43
69546;SHT31;56766;52.260;20.746;2023-04-24T14:36:04;21.19;42.97
69546;SHT31;56766;52.260;20.746;2023-04-24T14:38:31;21.17;42.80
69546;SHT31;56766;52.260;20.746;2023-04-24T14:40:57;21.11;42.83
69546;SHT31;56766;52.260;20.746;2023-04-24T14:43:23;21.06;43.10
69546;SHT31;56766;52.260;20.746;2023-04-24T14:45:49;21.02;43.42
69546;SHT31;56766;52.260;20.746;2023-04-24T14:48:15;20.99;43.34
69546;SHT31;56766;52.260;20.746;2023-04-24T14:50:42;21.00;43.28
69546;SHT31;56766;52.260;20.746;2023-04-24T14:53:08;21.04;43.31
69546;SHT31;56766;52.260;20.746;2023-04-24T14:55:35;21.12;43.23
69546;SHT31;56766;52.260;20.746;2023-04-24T14:58:02;21.23;42.91
69546;SHT31;56766;52.260;20.746;2023-04-24T15:00:29;21.35;42.48
69546;SHT31;56766;52.260;20.746;2023-04-24T15:02:56;21.46;42.15
69546;SHT31;56766;52.260;20.746;2023-04-24T15:05:22;21.55;42.34
69546;SHT31;56766;52.260;20.746;2023-04-24T15:07:50;21.59;41.45
69546;SHT31;56766;52.260;20.746;2023-04-24T15:10:16;21.60;40.89
69546;SHT31;56766;52.260;20.746;2023-04-24T15:12:43;21.58;40.57
69546;SHT31;56766;52.260;20.746;2023-04-24T15:15:09;21.59;40.32
69546;SHT31;56766;52.260;20.746;2023-04-24T15:17:35;21.63;39.91
69546;SHT31;56766;52.260;20.746;2023-04-24T15:20:02;21.68;39.87
69546;SHT31;56766;52.260;20.746;2023-04-24T15:22:29;21.73;39.58
69546;SHT31;56766;52.260;20.746;2023-04-24T15:24:55;21.80;39.36
69546;SHT31;56766;52.260;20.746;2023-04-24T15:27:21;21.79;38.72
69546;SHT31;56766;52.260;20.746;2023-04-24T15:29:47;21.73;37.71
69546;SHT31;56766;52.260;20.746;2023-04-24T15:32:13;21.66;38.03
69546;SHT31;56766;52.260;20.746;2023-04-24T15:34:39;21.60;38.04
69546;SHT31;56766;52.260;20.746;2023-04-24T15:37:06;21.51;38.30
69546;SHT31;56766;52.260;20.746;2023-04-24T15:39:33;21.41;38.76
69546;SHT31;56766;52.260;20.746;2023-04-24T15:41:59;21.28;38.56
69546;SHT31;56766;52.260;20.746;2023-04-24T15:44:25;21.15;38.75